Terminal Aerodrome Forecast
Issued by NWS Blacksburg, VA

Home | Current Version | Previous Version | Text Only | Print | Product List | Glossary On
Versions: 1 2 3 4 5 6 7 8 9 10 11 12 13 14 15 16 17 18 19 20 21 22 23 24 25 26 27 28 29 30 31
358
FTUS41 KRNK 240520
TAFROA
TAF
KROA 240520Z 2406/2506 00000KT P6SM FEW090
      TEMPO 2409/2412 2SM BR BKN019
     FM241300 00000KT P6SM SCT008
     FM241700 17005KT P6SM SCT025=

USA.gov is the U.S. government's official web portal to all federal, state and local government web resources and services.